Flag for Netherlands

Past Weather in 52°00'00.0"N, 4°22'00.0"E, Netherlands — Yesterday and Last 2 Weeks

Currently: 77 °F. Passing clouds. (Weather station: Rotterdam Zestienhoven Airport, Netherlands). See more current weather

Past Weather in 52°00'00.0"N, 4°22'00.0"E — Graph

°F

52°00'00.0"N, 4°22'00.0"E Temperature Yesterday

Maximum temperature yesterday: 70 °F (at 12:25 pm)
Minimum temperature yesterday: 59 °F (at 10:55 pm)
Average temperature yesterday: 65 °F

High & Low Weather Summary for the Past Weeks

 TemperatureHumidityPressure
High81 °F (Jul 9, 2:25 pm)100% (Jul 4, 2:25 am)30.18 "Hg (Jul 4, 2:25 am)
Low54 °F (Jul 7, 12:55 am)44% (Jul 15, 3:55 pm)29.45 "Hg (Jul 6, 8:55 am)
Average62 °F79%29.87 "Hg
* Reported Jul 3 12:25 pm — Jul 18 12:55 pm, 52°00'00.0"N, 4°22'00.0"E. Weather by CustomWeather, © 2024

Note: Actual official high and low records may vary slightly from our data, if they occured in-between our weather recording intervals... More about our weather records

52°00'00.0"N, 4°22'00.0"E Weather History for the Previous 24 Hours

Scroll right to see more
 ConditionsComfort  
Time TempWeatherWind HumidityBarometerVisibility
12:55 pm
Thu, Jul 18
75 °FBroken clouds.5 mph54%30.18 "HgN/A
12:25 pm77 °FPassing clouds.3 mph57%30.18 "HgN/A
11:55 am75 °FClear.3 mph57%30.18 "HgN/A
11:25 am75 °FClear.2 mph54%30.18 "HgN/A
10:55 am73 °FClear.2 mph61%30.18 "HgN/A
10:25 am72 °FClear.5 mph65%30.18 "HgN/A
9:55 am70 °FClear.5 mph73%30.18 "HgN/A
8:55 am64 °FClear.2 mph83%30.18 "HgN/A
8:25 am64 °FClear.3 mph88%30.18 "Hg5 mi
7:55 am61 °FClear.3 mph94%30.18 "Hg4 mi
7:25 am59 °FClear.2 mph100%30.18 "Hg3 mi
6:55 am57 °FFog.3 mph100%30.18 "Hg2 mi
6:25 am55 °FFog.2 mph100%30.18 "Hg0 mi
5:55 am55 °FFog.2 mph100%30.18 "Hg1 mi
5:25 am55 °FFog.1 mph94%30.18 "Hg2 mi
4:55 am55 °FFog.1 mph94%30.18 "Hg3 mi
4:25 am55 °FFog.1 mph100%30.18 "Hg3 mi
3:55 am55 °FFog.1 mph100%30.18 "Hg1 mi
3:25 am57 °FFog.1 mph94%30.18 "Hg2 mi
2:55 am57 °FClear.2 mph94%30.18 "Hg3 mi
2:25 am57 °FClear.2 mph100%30.18 "Hg3 mi
1:55 am57 °FClear.2 mph100%30.18 "Hg4 mi
1:25 am59 °FClear.1 mph94%30.18 "HgN/A
12:55 am57 °FClear.1 mph100%30.18 "HgN/A
12:25 am59 °FClear.1 mph94%30.18 "HgN/A
11:55 pm
Wed, Jul 17
59 °FClear.2 mph94%30.18 "HgN/A
11:25 pm59 °FClear.1 mph94%30.18 "HgN/A
10:55 pm59 °FClear.1 mph88%30.18 "HgN/A
10:25 pm63 °FClear.2 mph83%30.18 "HgN/A
9:55 pm63 °FClear.2 mph77%30.18 "HgN/A
9:25 pm64 °FClear.5 mph78%30.18 "HgN/A
8:55 pm66 °FClear.3 mph68%30.18 "HgN/A
8:25 pm68 °FClear.3 mph64%30.18 "HgN/A
7:55 pm68 °FClear.3 mph60%30.18 "HgN/A
7:25 pm68 °FClear.5 mph64%30.18 "HgN/A
6:55 pm70 °FClear.6 mph60%30.15 "HgN/A
6:25 pm70 °FClear.7 mph64%30.15 "HgN/A
5:55 pm70 °FClear.9 mph64%30.18 "HgN/A
5:25 pm68 °FClear.8 mph69%30.15 "HgN/A
4:55 pm70 °FClear.13 mph60%30.15 "HgN/A
3:55 pm70 °FPassing clouds.12 mph64%30.15 "HgN/A
2:55 pm70 °FPassing clouds.12 mph64%30.15 "HgN/A
2:25 pm70 °FClear.12 mph69%30.15 "HgN/A
Weather by CustomWeather, © 2024

See weather overview